Weather at Pittsburgh International Airport

Public forecast

Using degrees Fahrenheit for public forecast. Weather courtesy of forecast.io.

Current aviation weather report (METAR) for Pittsburgh International Airport

Report is more than 6 hours old.

2022/11/14 15:17 (retrieved 2 years ago)

KPIT 141517Z 00000KT 10SM BKN020 OVC043 02/M03 A3037 RMK AO2 T00221028

Aviation forecast (TAF) for Pittsburgh International Airport

Forecast is more than 12 hours old.

2023/02/22 18:33 (retrieved 1 year ago)

TAF KPIT 221729Z 2218/2324 12010KT 4SM BR OVC009 FM230000 16010KT P6SM OVC050 WS020/22040KT FM230400 21018G31KT 6SM -SHRA BKN050 WS020/22045KT FM230600 22024G38KT 6SM -SHRA BKN030 WS020/24050KT FM231000 26016G26KT P6SM BKN026 FM231200 25011G19KT P6SM BKN016